Aérodrome :
LOGIN :

S'inscrire | Disclaimer

   EN    FR    IT 

 










Légende :    VFR   VFR Marginal   IFR   IFR Intensif   IFR Très Intensif
Visi : 
Plafond : 
>= 8 km
>= 3000ft
5 à 8 km
1000 à 3000 ft
1500m à 5 km
500 à 1000 ft
800 à 1500m
200 à 500 ft
< 800m
< 200 ft
Symboles :   Orages  Brouillard  Fortes neiges  Fortes précipitations  Vent > 20 kt
SIGMETs :   Divers  Orages  Givrage  Turbulence  Onde Orograph.  Cendres Volcan.







- Altitude de l'aérodrome : 12 ft
- Code IATA : NCE
- Voir les cartes d'approche


LFMN - Nice

DERNIER METAR :
  • 190400Z 33010KT CAVOK 09/02 Q1014 NOSIG

METARs EXPIRÉS :
  • 190330Z 32010KT CAVOK 09/03 Q1014 NOSIG
  • 190300Z 33011KT CAVOK 09/03 Q1014 NOSIG
  • 190230Z 32011KT CAVOK 10/04 Q1014 NOSIG
  • 190200Z 32011KT CAVOK 10/04 Q1015 NOSIG

TAF TAF LFMN
Valide du 19 à 03h jusqu'au 20 à 09h UTC


190200Z 1903/2009 35010KT CAVOK
PROB30
TEMPO 1903/1905 26010KT
BECMG 1908/1910 09010KT
BECMG 1917/1919 36010KT
ATIS : +33 4 93 17 21 16
Pas de NOTAMs connus pour ce terrain.



MET'MAP, la Météo Aéronautique d'un coup d'oeil ! - Copyright ORBIFLY Décembre 2007 - Disclaimer

ORBIFLY MET'MAP TEAM :

Programmation & Développement : Alexandra Zaïnal
Conception & Développement : Baudouin d'Aumeries
Co-Programmation & Développement : Marc-Olivier Méhu
Soutien technique & logistique : Manuel Goepfert

Contact : metmap@orbifly.com




SOURCES & CREDITS :

   NOAA